sensor_id;sensor_type;location;lat;lon;timestamp;temperature;humidity
65989;HTU21D;53592;51.402;6.054;2022-12-18T00:00:44;-3.23;78.47
65989;HTU21D;53592;51.402;6.054;2022-12-18T00:03:16;-3.21;78.25
65989;HTU21D;53592;51.402;6.054;2022-12-18T00:05:51;-3.22;77.98
65989;HTU21D;53592;51.402;6.054;2022-12-18T00:08:18;-3.28;78.03
65989;HTU21D;53592;51.402;6.054;2022-12-18T00:10:45;-3.31;78.27
65989;HTU21D;53592;51.402;6.054;2022-12-18T00:13:12;-3.28;78.37
65989;HTU21D;53592;51.402;6.054;2022-12-18T00:15:39;-3.31;78.37
65989;HTU21D;53592;51.402;6.054;2022-12-18T00:18:05;-3.33;78.38
65989;HTU21D;53592;51.402;6.054;2022-12-18T00:20:35;-3.38;78.20
65989;HTU21D;53592;51.402;6.054;2022-12-18T00:23:00;-3.43;78.47
65989;HTU21D;53592;51.402;6.054;2022-12-18T00:25:26;-3.42;78.83
65989;HTU21D;53592;51.402;6.054;2022-12-18T00:27:51;-3.39;78.73
65989;HTU21D;53592;51.402;6.054;2022-12-18T00:30:17;-3.39;78.69
65989;HTU21D;53592;51.402;6.054;2022-12-18T00:32:43;-3.40;78.60
65989;HTU21D;53592;51.402;6.054;2022-12-18T00:35:08;-3.42;78.56
65989;HTU21D;53592;51.402;6.054;2022-12-18T00:37:34;-3.46;78.74
65989;HTU21D;53592;51.402;6.054;2022-12-18T00:39:59;-3.46;78.87
65989;HTU21D;53592;51.402;6.054;2022-12-18T00:42:25;-3.47;78.66
65989;HTU21D;53592;51.402;6.054;2022-12-18T00:45:09;-3.50;78.80
65989;HTU21D;53592;51.402;6.054;2022-12-18T00:47:35;-3.56;78.63
65989;HTU21D;53592;51.402;6.054;2022-12-18T00:50:00;-3.60;78.67
65989;HTU21D;53592;51.402;6.054;2022-12-18T00:52:26;-3.67;78.85
65989;HTU21D;53592;51.402;6.054;2022-12-18T00:54:51;-3.71;79.10
65989;HTU21D;53592;51.402;6.054;2022-12-18T00:57:17;-3.71;79.18
65989;HTU21D;53592;51.402;6.054;2022-12-18T00:59:42;-3.72;79.17
65989;HTU21D;53592;51.402;6.054;2022-12-18T01:02:07;-3.78;79.24
65989;HTU21D;53592;51.402;6.054;2022-12-18T01:04:33;-3.77;79.33
65989;HTU21D;53592;51.402;6.054;2022-12-18T01:06:59;-3.84;79.46
65989;HTU21D;53592;51.402;6.054;2022-12-18T01:09:24;-3.84;79.49
65989;HTU21D;53592;51.402;6.054;2022-12-18T01:11:50;-3.87;79.72
65989;HTU21D;53592;51.402;6.054;2022-12-18T01:14:15;-3.82;79.78
65989;HTU21D;53592;51.402;6.054;2022-12-18T01:16:41;-3.78;79.72
65989;HTU21D;53592;51.402;6.054;2022-12-18T01:19:07;-3.77;79.59
65989;HTU21D;53592;51.402;6.054;2022-12-18T01:21:32;-3.79;79.45
65989;HTU21D;53592;51.402;6.054;2022-12-18T01:23:58;-3.83;79.32
65989;HTU21D;53592;51.402;6.054;2022-12-18T01:26:25;-3.84;79.28
65989;HTU21D;53592;51.402;6.054;2022-12-18T01:28:54;-3.90;79.15
65989;HTU21D;53592;51.402;6.054;2022-12-18T01:31:22;0.00;79.37
65989;HTU21D;53592;51.402;6.054;2022-12-18T01:33:49;-3.95;79.31
65989;HTU21D;53592;51.402;6.054;2022-12-18T01:36:20;-3.99;79.59
65989;HTU21D;53592;51.402;6.054;2022-12-18T01:38:47;-3.98;79.53
65989;HTU21D;53592;51.402;6.054;2022-12-18T01:41:14;-4.05;79.62
65989;HTU21D;53592;51.402;6.054;2022-12-18T01:43:44;-4.10;79.72
65989;HTU21D;53592;51.402;6.054;2022-12-18T01:46:10;-4.13;79.94
65989;HTU21D;53592;51.402;6.054;2022-12-18T01:48:37;-4.10;80.04
65989;HTU21D;53592;51.402;6.054;2022-12-18T01:51:04;-4.06;79.99
65989;HTU21D;53592;51.402;6.054;2022-12-18T01:53:31;-4.01;79.83
65989;HTU21D;53592;51.402;6.054;2022-12-18T01:55:58;-3.98;79.65
65989;HTU21D;53592;51.402;6.054;2022-12-18T02:01:02;-3.94;79.37
65989;HTU21D;53592;51.402;6.054;2022-12-18T02:03:27;-3.91;79.27
65989;HTU21D;53592;51.402;6.054;2022-12-18T02:06:51;-3.87;79.24
65989;HTU21D;53592;51.402;6.054;2022-12-18T02:11:47;-3.80;78.69
65989;HTU21D;53592;51.402;6.054;2022-12-18T02:17:21;-3.90;78.50
65989;HTU21D;53592;51.402;6.054;2022-12-18T02:28:28;-3.97;78.63
65989;HTU21D;53592;51.402;6.054;2022-12-18T02:31:00;-3.97;78.39
65989;HTU21D;53592;51.402;6.054;2022-12-18T02:33:30;-4.06;78.47
65989;HTU21D;53592;51.402;6.054;2022-12-18T02:35:58;-4.04;78.51
65989;HTU21D;53592;51.402;6.054;2022-12-18T02:38:25;-4.02;78.47
65989;HTU21D;53592;51.402;6.054;2022-12-18T02:40:53;-4.01;78.55
65989;HTU21D;53592;51.402;6.054;2022-12-18T02:43:19;-4.00;78.27
65989;HTU21D;53592;51.402;6.054;2022-12-18T02:45:50;-4.07;78.21
65989;HTU21D;53592;51.402;6.054;2022-12-18T02:48:25;-4.07;78.28
65989;HTU21D;53592;51.402;6.054;2022-12-18T02:53:53;-4.08;78.28
65989;HTU21D;53592;51.402;6.054;2022-12-18T02:56:35;-4.13;78.17
65989;HTU21D;53592;51.402;6.054;2022-12-18T02:59:30;-4.13;78.43
65989;HTU21D;53592;51.402;6.054;2022-12-18T03:02:19;-4.08;78.47
65989;HTU21D;53592;51.402;6.054;2022-12-18T03:04:48;-4.05;78.40
65989;HTU21D;53592;51.402;6.054;2022-12-18T03:07:23;-4.04;78.33
65989;HTU21D;53592;51.402;6.054;2022-12-18T03:09:54;-4.04;78.13
65989;HTU21D;53592;51.402;6.054;2022-12-18T03:12:31;-4.06;78.06
65989;HTU21D;53592;51.402;6.054;2022-12-18T03:15:19;-4.09;78.07
65989;HTU21D;53592;51.402;6.054;2022-12-18T03:17:52;-4.08;78.09
65989;HTU21D;53592;51.402;6.054;2022-12-18T03:20:22;-4.10;77.83
65989;HTU21D;53592;51.402;6.054;2022-12-18T03:22:54;-4.12;77.83
65989;HTU21D;53592;51.402;6.054;2022-12-18T03:25:22;-4.13;77.64
65989;HTU21D;53592;51.402;6.054;2022-12-18T03:27:56;-4.12;77.74
65989;HTU21D;53592;51.402;6.054;2022-12-18T03:30:28;-4.09;77.65
65989;HTU21D;53592;51.402;6.054;2022-12-18T03:33:02;-4.06;77.45
65989;HTU21D;53592;51.402;6.054;2022-12-18T03:35:35;-4.12;77.12
65989;HTU21D;53592;51.402;6.054;2022-12-18T03:38:01;-4.21;77.10
65989;HTU21D;53592;51.402;6.054;2022-12-18T03:40:51;-4.30;77.25
65989;HTU21D;53592;51.402;6.054;2022-12-18T03:43:42;-4.39;77.51
65989;HTU21D;53592;51.402;6.054;2022-12-18T03:46:20;-4.49;77.93
65989;HTU21D;53592;51.402;6.054;2022-12-18T03:48:55;-4.55;78.21
65989;HTU21D;53592;51.402;6.054;2022-12-18T03:54:02;-4.54;78.62
65989;HTU21D;53592;51.402;6.054;2022-12-18T03:56:34;-4.55;78.81
65989;HTU21D;53592;51.402;6.054;2022-12-18T03:59:05;-4.55;78.92
65989;HTU21D;53592;51.402;6.054;2022-12-18T04:01:39;-4.52;79.02
65989;HTU21D;53592;51.402;6.054;2022-12-18T04:04:08;-4.51;78.98
65989;HTU21D;53592;51.402;6.054;2022-12-18T04:06:35;-4.51;79.02
65989;HTU21D;53592;51.402;6.054;2022-12-18T04:09:01;-4.54;79.20
65989;HTU21D;53592;51.402;6.054;2022-12-18T04:11:27;-4.54;79.30
65989;HTU21D;53592;51.402;6.054;2022-12-18T04:13:57;-4.52;79.30
65989;HTU21D;53592;51.402;6.054;2022-12-18T04:16:24;-4.48;79.30
65989;HTU21D;53592;51.402;6.054;2022-12-18T04:18:50;-4.44;79.27
65989;HTU21D;53592;51.402;6.054;2022-12-18T04:21:15;-4.43;79.16
65989;HTU21D;53592;51.402;6.054;2022-12-18T04:23:41;-4.43;79.30
65989;HTU21D;53592;51.402;6.054;2022-12-18T04:26:06;-4.41;79.16
65989;HTU21D;53592;51.402;6.054;2022-12-18T04:28:32;-4.41;79.24
65989;HTU21D;53592;51.402;6.054;2022-12-18T04:30:57;-4.43;79.44
65989;HTU21D;53592;51.402;6.054;2022-12-18T04:33:23;-4.41;79.68
65989;HTU21D;53592;51.402;6.054;2022-12-18T04:35:48;-4.41;79.72
65989;HTU21D;53592;51.402;6.054;2022-12-18T04:38:14;-4.35;79.93
65989;HTU21D;53592;51.402;6.054;2022-12-18T04:40:40;-4.35;80.14
65989;HTU21D;53592;51.402;6.054;2022-12-18T04:43:05;-4.31;80.23
65989;HTU21D;53592;51.402;6.054;2022-12-18T04:45:31;-4.30;80.37
65989;HTU21D;53592;51.402;6.054;2022-12-18T04:47:59;-4.28;80.40
65989;HTU21D;53592;51.402;6.054;2022-12-18T04:50:25;-4.30;80.36
65989;HTU21D;53592;51.402;6.054;2022-12-18T04:52:51;-4.23;80.19
65989;HTU21D;53592;51.402;6.054;2022-12-18T04:55:16;-4.26;80.36
65989;HTU21D;53592;51.402;6.054;2022-12-18T04:57:42;-4.26;80.27
65989;HTU21D;53592;51.402;6.054;2022-12-18T05:00:08;-4.26;80.25
65989;HTU21D;53592;51.402;6.054;2022-12-18T05:02:33;-4.23;80.35
65989;HTU21D;53592;51.402;6.054;2022-12-18T05:04:59;-4.21;80.22
65989;HTU21D;53592;51.402;6.054;2022-12-18T05:07:24;-4.20;80.26
65989;HTU21D;53592;51.402;6.054;2022-12-18T05:09:50;-4.15;80.02
65989;HTU21D;53592;51.402;6.054;2022-12-18T05:12:15;-4.08;79.78
65989;HTU21D;53592;51.402;6.054;2022-12-18T05:14:41;-4.12;79.96
65989;HTU21D;53592;51.402;6.054;2022-12-18T05:17:06;-4.11;79.82
65989;HTU21D;53592;51.402;6.054;2022-12-18T05:19:32;-4.12;79.91
65989;HTU21D;53592;51.402;6.054;2022-12-18T05:21:57;-4.11;79.76
65989;HTU21D;53592;51.402;6.054;2022-12-18T05:24:23;-4.10;79.80
65989;HTU21D;53592;51.402;6.054;2022-12-18T05:26:48;-4.06;79.54
65989;HTU21D;53592;51.402;6.054;2022-12-18T05:29:14;-4.06;79.43
65989;HTU21D;53592;51.402;6.054;2022-12-18T05:31:40;-4.09;79.56
65989;HTU21D;53592;51.402;6.054;2022-12-18T05:34:05;-4.07;79.61
65989;HTU21D;53592;51.402;6.054;2022-12-18T05:36:31;-4.06;79.75
65989;HTU21D;53592;51.402;6.054;2022-12-18T05:38:57;-4.02;79.78
65989;HTU21D;53592;51.402;6.054;2022-12-18T05:41:22;-3.99;79.53
65989;HTU21D;53592;51.402;6.054;2022-12-18T05:43:48;-4.01;79.59
65989;HTU21D;53592;51.402;6.054;2022-12-18T05:46:16;-4.06;79.72
65989;HTU21D;53592;51.402;6.054;2022-12-18T05:48:44;-4.07;79.86
65989;HTU21D;53592;51.402;6.054;2022-12-18T05:51:13;-4.06;79.72
65989;HTU21D;53592;51.402;6.054;2022-12-18T05:53:39;-4.07;79.81
65989;HTU21D;53592;51.402;6.054;2022-12-18T05:56:10;-4.06;79.84
65989;HTU21D;53592;51.402;6.054;2022-12-18T05:58:36;-4.07;79.95
65989;HTU21D;53592;51.402;6.054;2022-12-18T06:01:14;-4.07;79.79
65989;HTU21D;53592;51.402;6.054;2022-12-18T06:03:40;-4.09;80.01
65989;HTU21D;53592;51.402;6.054;2022-12-18T06:06:14;-4.09;80.14
65989;HTU21D;53592;51.402;6.054;2022-12-18T06:08:40;-4.09;80.17
65989;HTU21D;53592;51.402;6.054;2022-12-18T06:11:05;-4.09;80.31
65989;HTU21D;53592;51.402;6.054;2022-12-18T06:13:31;-4.08;80.35
65989;HTU21D;53592;51.402;6.054;2022-12-18T06:15:56;-4.02;80.36
65989;HTU21D;53592;51.402;6.054;2022-12-18T06:18:22;-3.99;80.47
65989;HTU21D;53592;51.402;6.054;2022-12-18T06:20:57;-3.94;80.42
65989;HTU21D;53592;51.402;6.054;2022-12-18T06:23:23;-3.85;80.31
65989;HTU21D;53592;51.402;6.054;2022-12-18T06:25:48;-3.86;80.36
65989;HTU21D;53592;51.402;6.054;2022-12-18T06:28:14;-3.74;79.94
65989;HTU21D;53592;51.402;6.054;2022-12-18T06:30:39;-3.77;80.28
65989;HTU21D;53592;51.402;6.054;2022-12-18T06:33:05;-3.68;80.06
65989;HTU21D;53592;51.402;6.054;2022-12-18T06:35:32;-3.75;80.24
65989;HTU21D;53592;51.402;6.054;2022-12-18T06:37:57;-3.66;79.78
65989;HTU21D;53592;51.402;6.054;2022-12-18T06:40:22;-3.70;80.09
65989;HTU21D;53592;51.402;6.054;2022-12-18T06:42:48;-3.68;80.09
65989;HTU21D;53592;51.402;6.054;2022-12-18T06:45:14;-3.63;79.78
65989;HTU21D;53592;51.402;6.054;2022-12-18T06:47:39;-3.60;79.56
65989;HTU21D;53592;51.402;6.054;2022-12-18T06:50:05;-3.60;79.53
65989;HTU21D;53592;51.402;6.054;2022-12-18T06:52:32;-3.53;79.51
65989;HTU21D;53592;51.402;6.054;2022-12-18T06:54:57;-3.49;79.21
65989;HTU21D;53592;51.402;6.054;2022-12-18T06:57:23;-3.45;78.98
65989;HTU21D;53592;51.402;6.054;2022-12-18T06:59:48;-3.46;78.84
65989;HTU21D;53592;51.402;6.054;2022-12-18T07:02:13;-3.53;79.01
65989;HTU21D;53592;51.402;6.054;2022-12-18T07:04:39;-3.53;79.22
65989;HTU21D;53592;51.402;6.054;2022-12-18T07:07:05;-3.35;78.20
65989;HTU21D;53592;51.402;6.054;2022-12-18T07:09:30;-3.45;78.72
65989;HTU21D;53592;51.402;6.054;2022-12-18T07:11:56;-3.48;78.90
65989;HTU21D;53592;51.402;6.054;2022-12-18T07:14:21;-3.39;78.88
65989;HTU21D;53592;51.402;6.054;2022-12-18T07:16:47;-3.49;78.83
65989;HTU21D;53592;51.402;6.054;2022-12-18T07:19:12;-3.54;79.12
65989;HTU21D;53592;51.402;6.054;2022-12-18T07:21:38;-3.53;79.50
65989;HTU21D;53592;51.402;6.054;2022-12-18T07:24:03;-3.52;79.27
65989;HTU21D;53592;51.402;6.054;2022-12-18T07:26:29;-3.50;79.24
65989;HTU21D;53592;51.402;6.054;2022-12-18T07:28:55;-3.53;79.30
65989;HTU21D;53592;51.402;6.054;2022-12-18T07:31:23;-3.45;78.79
65989;HTU21D;53592;51.402;6.054;2022-12-18T07:33:50;-3.51;79.14
65989;HTU21D;53592;51.402;6.054;2022-12-18T07:36:16;-3.55;79.24
65989;HTU21D;53592;51.402;6.054;2022-12-18T07:38:41;-3.52;79.30
65989;HTU21D;53592;51.402;6.054;2022-12-18T07:41:09;-3.49;78.97
65989;HTU21D;53592;51.402;6.054;2022-12-18T07:43:35;-3.57;79.15
65989;HTU21D;53592;51.402;6.054;2022-12-18T07:46:01;-3.58;79.16
65989;HTU21D;53592;51.402;6.054;2022-12-18T07:48:30;-3.46;78.85
65989;HTU21D;53592;51.402;6.054;2022-12-18T07:51:00;-3.53;78.96
65989;HTU21D;53592;51.402;6.054;2022-12-18T07:53:26;-3.57;79.15
65989;HTU21D;53592;51.402;6.054;2022-12-18T07:55:56;-3.56;79.16
65989;HTU21D;53592;51.402;6.054;2022-12-18T07:58:22;-3.61;79.29
65989;HTU21D;53592;51.402;6.054;2022-12-18T08:00:47;-3.57;79.62
65989;HTU21D;53592;51.402;6.054;2022-12-18T08:03:13;-3.51;79.39
65989;HTU21D;53592;51.402;6.054;2022-12-18T08:05:38;-3.54;79.65
65989;HTU21D;53592;51.402;6.054;2022-12-18T08:08:04;-3.50;79.54
65989;HTU21D;53592;51.402;6.054;2022-12-18T08:10:29;-3.46;79.40
65989;HTU21D;53592;51.402;6.054;2022-12-18T08:12:55;-3.41;79.24
65989;HTU21D;53592;51.402;6.054;2022-12-18T08:15:20;-3.36;79.51
65989;HTU21D;53592;51.402;6.054;2022-12-18T08:17:46;-3.36;79.49
65989;HTU21D;53592;51.402;6.054;2022-12-18T08:20:11;-3.27;79.32
65989;HTU21D;53592;51.402;6.054;2022-12-18T08:22:39;-3.25;79.52
65989;HTU21D;53592;51.402;6.054;2022-12-18T08:25:05;-3.15;79.32
65989;HTU21D;53592;51.402;6.054;2022-12-18T08:27:31;-3.10;79.59
65989;HTU21D;53592;51.402;6.054;2022-12-18T08:29:59;-3.06;79.79
65989;HTU21D;53592;51.402;6.054;2022-12-18T08:32:25;-2.93;79.46
65989;HTU21D;53592;51.402;6.054;2022-12-18T08:34:51;-2.87;79.21
65989;HTU21D;53592;51.402;6.054;2022-12-18T08:37:16;-2.77;78.95
65989;HTU21D;53592;51.402;6.054;2022-12-18T08:39:42;-2.65;78.61
65989;HTU21D;53592;51.402;6.054;2022-12-18T08:42:07;-2.57;78.38
65989;HTU21D;53592;51.402;6.054;2022-12-18T08:44:51;-2.52;77.99
65989;HTU21D;53592;51.402;6.054;2022-12-18T08:47:17;-2.49;77.95
65989;HTU21D;53592;51.402;6.054;2022-12-18T08:49:42;-2.46;77.64
65989;HTU21D;53592;51.402;6.054;2022-12-18T08:52:08;-2.33;77.18
65989;HTU21D;53592;51.402;6.054;2022-12-18T08:54:34;-2.36;77.65
65989;HTU21D;53592;51.402;6.054;2022-12-18T08:56:59;-2.26;77.33
65989;HTU21D;53592;51.402;6.054;2022-12-18T08:59:25;-2.15;76.21
65989;HTU21D;53592;51.402;6.054;2022-12-18T09:01:53;-2.13;76.17
65989;HTU21D;53592;51.402;6.054;2022-12-18T09:04:19;-2.16;76.57
65989;HTU21D;53592;51.402;6.054;2022-12-18T09:06:44;-2.13;76.29
65989;HTU21D;53592;51.402;6.054;2022-12-18T09:09:10;-2.12;76.72
65989;HTU21D;53592;51.402;6.054;2022-12-18T09:11:36;-2.02;76.56
65989;HTU21D;53592;51.402;6.054;2022-12-18T09:14:02;-1.94;76.35
65989;HTU21D;53592;51.402;6.054;2022-12-18T09:16:28;-1.90;75.70
65989;HTU21D;53592;51.402;6.054;2022-12-18T09:18:55;-1.78;75.58
65989;HTU21D;53592;51.402;6.054;2022-12-18T09:21:26;-1.77;75.80
65989;HTU21D;53592;51.402;6.054;2022-12-18T09:23:54;-1.74;75.87
65989;HTU21D;53592;51.402;6.054;2022-12-18T09:26:23;-1.64;75.46
65989;HTU21D;53592;51.402;6.054;2022-12-18T09:28:49;-1.59;74.86
65989;HTU21D;53592;51.402;6.054;2022-12-18T09:31:16;-1.60;75.44
65989;HTU21D;53592;51.402;6.054;2022-12-18T09:33:43;-1.55;75.05
65989;HTU21D;53592;51.402;6.054;2022-12-18T09:36:13;-1.53;75.05
65989;HTU21D;53592;51.402;6.054;2022-12-18T09:38:39;-1.49;74.62
65989;HTU21D;53592;51.402;6.054;2022-12-18T09:44:03;-1.43;75.15
65989;HTU21D;53592;51.402;6.054;2022-12-18T09:46:36;-1.39;74.98
65989;HTU21D;53592;51.402;6.054;2022-12-18T09:49:11;-1.32;74.55
65989;HTU21D;53592;51.402;6.054;2022-12-18T09:51:45;-1.23;74.06
65989;HTU21D;53592;51.402;6.054;2022-12-18T09:54:22;-1.23;73.99
65989;HTU21D;53592;51.402;6.054;2022-12-18T09:56:49;-1.17;74.05
65989;HTU21D;53592;51.402;6.054;2022-12-18T09:59:26;-1.17;73.81
65989;HTU21D;53592;51.402;6.054;2022-12-18T10:01:56;-1.18;74.33
65989;HTU21D;53592;51.402;6.054;2022-12-18T10:04:23;-1.06;73.88
65989;HTU21D;53592;51.402;6.054;2022-12-18T10:07:03;-1.04;74.51
65989;HTU21D;53592;51.402;6.054;2022-12-18T10:10:04;-1.01;74.25
65989;HTU21D;53592;51.402;6.054;2022-12-18T10:12:43;-0.91;74.23
65989;HTU21D;53592;51.402;6.054;2022-12-18T10:15:29;-0.88;73.61
65989;HTU21D;53592;51.402;6.054;2022-12-18T10:20:47;-0.87;73.85
65989;HTU21D;53592;51.402;6.054;2022-12-18T10:24:02;-0.82;73.66
65989;HTU21D;53592;51.402;6.054;2022-12-18T10:26:20;-0.68;73.32
65989;HTU21D;53592;51.402;6.054;2022-12-18T10:28:45;-0.73;73.48
65989;HTU21D;53592;51.402;6.054;2022-12-18T10:31:22;-0.68;73.60
65989;HTU21D;53592;51.402;6.054;2022-12-18T10:33:48;-0.60;73.44
65989;HTU21D;53592;51.402;6.054;2022-12-18T10:36:14;-0.59;73.21
65989;HTU21D;53592;51.402;6.054;2022-12-18T10:38:40;-0.41;72.16
65989;HTU21D;53592;51.402;6.054;2022-12-18T10:43:36;-0.45;72.17
65989;HTU21D;53592;51.402;6.054;2022-12-18T10:46:22;-0.31;70.82
65989;HTU21D;53592;51.402;6.054;2022-12-18T10:51:22;-0.38;72.50
65989;HTU21D;53592;51.402;6.054;2022-12-18T10:53:56;-0.34;71.74
65989;HTU21D;53592;51.402;6.054;2022-12-18T10:56:24;-0.38;72.32
65989;HTU21D;53592;51.402;6.054;2022-12-18T10:59:00;-0.25;71.06
65989;HTU21D;53592;51.402;6.054;2022-12-18T11:01:26;-0.28;71.42
65989;HTU21D;53592;51.402;6.054;2022-12-18T11:06:23;-0.26;71.13
65989;HTU21D;53592;51.402;6.054;2022-12-18T11:11:28;-0.19;71.22
65989;HTU21D;53592;51.402;6.054;2022-12-18T11:14:19;-0.17;71.26
65989;HTU21D;53592;51.402;6.054;2022-12-18T11:16:49;-0.13;71.56
65989;HTU21D;53592;51.402;6.054;2022-12-18T11:21:48;-0.08;71.35
65989;HTU21D;53592;51.402;6.054;2022-12-18T11:24:28;0.01;70.90
65989;HTU21D;53592;51.402;6.054;2022-12-18T11:26:56;0.05;70.73
65989;HTU21D;53592;51.402;6.054;2022-12-18T11:29:28;0.01;71.12
65989;HTU21D;53592;51.402;6.054;2022-12-18T11:32:27;0.08;70.55
65989;HTU21D;53592;51.402;6.054;2022-12-18T11:35:14;0.13;70.00
65989;HTU21D;53592;51.402;6.054;2022-12-18T11:37:46;0.13;69.96
65989;HTU21D;53592;51.402;6.054;2022-12-18T11:40:18;0.17;69.78
65989;HTU21D;53592;51.402;6.054;2022-12-18T11:43:10;0.22;70.25
65989;HTU21D;53592;51.402;6.054;2022-12-18T11:46:02;0.35;68.75
65989;HTU21D;53592;51.402;6.054;2022-12-18T11:48:47;0.24;70.02
65989;HTU21D;53592;51.402;6.054;2022-12-18T11:51:29;0.28;70.46
65989;HTU21D;53592;51.402;6.054;2022-12-18T11:53:57;0.47;69.01
65989;HTU21D;53592;51.402;6.054;2022-12-18T11:56:43;0.38;69.49
65989;HTU21D;53592;51.402;6.054;2022-12-18T11:59:37;0.47;69.39
65989;HTU21D;53592;51.402;6.054;2022-12-18T12:16:57;0.64;69.08
65989;HTU21D;53592;51.402;6.054;2022-12-18T12:19:04;0.61;68.83
65989;HTU21D;53592;51.402;6.054;2022-12-18T12:21:37;0.53;69.04
65989;HTU21D;53592;51.402;6.054;2022-12-18T12:26:52;0.61;68.42
65989;HTU21D;53592;51.402;6.054;2022-12-18T12:32:22;0.54;68.36
65989;HTU21D;53592;51.402;6.054;2022-12-18T12:40:27;0.52;68.83
65989;HTU21D;53592;51.402;6.054;2022-12-18T12:42:58;0.57;68.65
65989;HTU21D;53592;51.402;6.054;2022-12-18T12:48:41;0.62;68.65
65989;HTU21D;53592;51.402;6.054;2022-12-18T12:51:19;0.63;69.10
65989;HTU21D;53592;51.402;6.054;2022-12-18T12:53:47;0.62;69.13
65989;HTU21D;53592;51.402;6.054;2022-12-18T12:56:18;0.64;69.13
65989;HTU21D;53592;51.402;6.054;2022-12-18T13:01:52;0.73;68.78
65989;HTU21D;53592;51.402;6.054;2022-12-18T13:04:40;0.74;68.91
65989;HTU21D;53592;51.402;6.054;2022-12-18T13:07:41;0.75;68.49
65989;HTU21D;53592;51.402;6.054;2022-12-18T13:12:58;0.80;68.83
65989;HTU21D;53592;51.402;6.054;2022-12-18T13:18:21;0.94;68.01
65989;HTU21D;53592;51.402;6.054;2022-12-18T13:26:00;0.90;67.64
65989;HTU21D;53592;51.402;6.054;2022-12-18T13:31:13;0.78;68.10
65989;HTU21D;53592;51.402;6.054;2022-12-18T13:33:44;0.76;68.30
65989;HTU21D;53592;51.402;6.054;2022-12-18T13:36:14;0.74;68.59
65989;HTU21D;53592;51.402;6.054;2022-12-18T13:38:42;0.77;68.46
65989;HTU21D;53592;51.402;6.054;2022-12-18T13:43:51;0.92;66.83
65989;HTU21D;53592;51.402;6.054;2022-12-18T13:46:30;0.83;67.76
65989;HTU21D;53592;51.402;6.054;2022-12-18T13:49:03;0.83;68.07
65989;HTU21D;53592;51.402;6.054;2022-12-18T13:51:33;0.86;67.57
65989;HTU21D;53592;51.402;6.054;2022-12-18T13:54:17;0.96;66.65
65989;HTU21D;53592;51.402;6.054;2022-12-18T13:56:46;0.87;67.17
65989;HTU21D;53592;51.402;6.054;2022-12-18T13:59:26;0.83;67.75
65989;HTU21D;53592;51.402;6.054;2022-12-18T14:01:59;0.79;67.62
65989;HTU21D;53592;51.402;6.054;2022-12-18T14:04:34;0.82;68.01
65989;HTU21D;53592;51.402;6.054;2022-12-18T14:07:06;0.83;67.39
65989;HTU21D;53592;51.402;6.054;2022-12-18T14:09:40;0.96;66.90
65989;HTU21D;53592;51.402;6.054;2022-12-18T14:12:20;0.96;67.12
65989;HTU21D;53592;51.402;6.054;2022-12-18T14:17:39;1.01;66.36
65989;HTU21D;53592;51.402;6.054;2022-12-18T14:20:14;1.12;66.07
65989;HTU21D;53592;51.402;6.054;2022-12-18T14:22:43;1.05;66.20
65989;HTU21D;53592;51.402;6.054;2022-12-18T14:30:42;0.97;66.93
65989;HTU21D;53592;51.402;6.054;2022-12-18T14:33:20;1.07;66.16
65989;HTU21D;53592;51.402;6.054;2022-12-18T14:35:55;1.07;66.66
65989;HTU21D;53592;51.402;6.054;2022-12-18T14:38:38;0.98;67.05
65989;HTU21D;53592;51.402;6.054;2022-12-18T14:43:36;1.09;66.28
65989;HTU21D;53592;51.402;6.054;2022-12-18T14:46:05;1.02;66.43
65989;HTU21D;53592;51.402;6.054;2022-12-18T14:48:40;1.02;66.69
65989;HTU21D;53592;51.402;6.054;2022-12-18T14:51:15;0.94;67.17
65989;HTU21D;53592;51.402;6.054;2022-12-18T14:53:47;1.01;66.97
65989;HTU21D;53592;51.402;6.054;2022-12-18T14:56:18;1.01;66.95
65989;HTU21D;53592;51.402;6.054;2022-12-18T14:58:50;0.93;67.38
65989;HTU21D;53592;51.402;6.054;2022-12-18T15:01:48;0.96;66.79
65989;HTU21D;53592;51.402;6.054;2022-12-18T15:04:37;0.97;66.30
65989;HTU21D;53592;51.402;6.054;2022-12-18T15:07:19;0.92;66.72
65989;HTU21D;53592;51.402;6.054;2022-12-18T15:20:54;0.95;66.31
65989;HTU21D;53592;51.402;6.054;2022-12-18T15:23:32;0.88;66.72
65989;HTU21D;53592;51.402;6.054;2022-12-18T15:26:02;0.86;66.98
65989;HTU21D;53592;51.402;6.054;2022-12-18T15:28:35;0.78;67.64
65989;HTU21D;53592;51.402;6.054;2022-12-18T15:31:46;0.79;67.84
65989;HTU21D;53592;51.402;6.054;2022-12-18T15:36:19;0.82;67.72
65989;HTU21D;53592;51.402;6.054;2022-12-18T15:38:50;0.82;67.59
65989;HTU21D;53592;51.402;6.054;2022-12-18T15:41:18;0.88;67.06
65989;HTU21D;53592;51.402;6.054;2022-12-18T15:43:46;0.86;67.40
65989;HTU21D;53592;51.402;6.054;2022-12-18T15:46:20;0.95;66.69
65989;HTU21D;53592;51.402;6.054;2022-12-18T15:48:55;0.93;67.11
65989;HTU21D;53592;51.402;6.054;2022-12-18T15:51:29;0.81;67.69
65989;HTU21D;53592;51.402;6.054;2022-12-18T15:53:59;0.84;67.47
65989;HTU21D;53592;51.402;6.054;2022-12-18T15:56:25;0.81;68.08
65989;HTU21D;53592;51.402;6.054;2022-12-18T15:59:15;0.80;68.09
65989;HTU21D;53592;51.402;6.054;2022-12-18T16:01:44;0.77;68.34
65989;HTU21D;53592;51.402;6.054;2022-12-18T16:04:15;0.94;67.10
65989;HTU21D;53592;51.402;6.054;2022-12-18T16:06:41;0.89;67.44
65989;HTU21D;53592;51.402;6.054;2022-12-18T16:09:07;0.83;67.88
65989;HTU21D;53592;51.402;6.054;2022-12-18T16:11:35;0.94;67.55
65989;HTU21D;53592;51.402;6.054;2022-12-18T16:14:23;0.93;67.46
65989;HTU21D;53592;51.402;6.054;2022-12-18T16:16:56;0.94;67.55
65989;HTU21D;53592;51.402;6.054;2022-12-18T16:19:22;0.89;67.81
65989;HTU21D;53592;51.402;6.054;2022-12-18T16:21:50;0.98;67.20
65989;HTU21D;53592;51.402;6.054;2022-12-18T16:24:22;0.92;67.85
65989;HTU21D;53592;51.402;6.054;2022-12-18T16:26:49;0.89;67.84
65989;HTU21D;53592;51.402;6.054;2022-12-18T16:29:17;0.92;67.97
65989;HTU21D;53592;51.402;6.054;2022-12-18T16:31:43;0.96;67.41
65989;HTU21D;53592;51.402;6.054;2022-12-18T16:34:13;0.95;67.47
65989;HTU21D;53592;51.402;6.054;2022-12-18T16:36:39;0.96;67.23
65989;HTU21D;53592;51.402;6.054;2022-12-18T16:39:04;0.95;67.66
65989;HTU21D;53592;51.402;6.054;2022-12-18T16:41:30;0.96;67.49
65989;HTU21D;53592;51.402;6.054;2022-12-18T16:44:02;1.04;66.85
65989;HTU21D;53592;51.402;6.054;2022-12-18T16:46:27;1.06;66.49
65989;HTU21D;53592;51.402;6.054;2022-12-18T16:48:53;1.02;66.89
65989;HTU21D;53592;51.402;6.054;2022-12-18T16:51:18;0.95;67.31
65989;HTU21D;53592;51.402;6.054;2022-12-18T16:53:44;1.03;66.72
65989;HTU21D;53592;51.402;6.054;2022-12-18T16:56:09;1.08;66.20
65989;HTU21D;53592;51.402;6.054;2022-12-18T16:58:35;1.04;66.35
65989;HTU21D;53592;51.402;6.054;2022-12-18T17:01:00;1.06;66.59
65989;HTU21D;53592;51.402;6.054;2022-12-18T17:03:26;1.04;66.65
65989;HTU21D;53592;51.402;6.054;2022-12-18T17:05:51;0.98;66.91
65989;HTU21D;53592;51.402;6.054;2022-12-18T17:08:17;1.07;66.63
65989;HTU21D;53592;51.402;6.054;2022-12-18T17:10:42;0.94;67.48
65989;HTU21D;53592;51.402;6.054;2022-12-18T17:13:08;0.97;67.46
65989;HTU21D;53592;51.402;6.054;2022-12-18T17:15:35;0.95;67.79
65989;HTU21D;53592;51.402;6.054;2022-12-18T17:18:01;1.01;67.46
65989;HTU21D;53592;51.402;6.054;2022-12-18T17:20:27;1.01;67.06
65989;HTU21D;53592;51.402;6.054;2022-12-18T17:22:52;0.96;67.58
65989;HTU21D;53592;51.402;6.054;2022-12-18T17:25:18;0.99;67.38
65989;HTU21D;53592;51.402;6.054;2022-12-18T17:27:43;0.95;67.46
65989;HTU21D;53592;51.402;6.054;2022-12-18T17:30:09;0.95;67.94